createdAt,value
2022-12-23T00:01:22.965Z,-1.77
2022-12-23T00:03:49.844Z,-1.75
2022-12-23T00:06:18.318Z,-1.73
2022-12-23T00:08:45.205Z,-1.80
2022-12-23T00:11:21.033Z,-1.67
2022-12-23T00:14:26.319Z,-1.68
2022-12-23T00:16:53.336Z,-1.64
2022-12-23T00:19:20.143Z,-1.64
2022-12-23T00:21:48.431Z,-1.62
2022-12-23T00:24:15.305Z,-1.64
2022-12-23T00:26:42.006Z,-1.64
2022-12-23T00:29:08.809Z,-1.62
2022-12-23T00:31:35.580Z,-1.65
2022-12-23T00:34:02.349Z,-1.59
2022-12-23T00:36:30.433Z,-1.56
2022-12-23T00:39:18.388Z,-1.58
2022-12-23T00:42:04.065Z,-1.72
2022-12-23T00:44:31.206Z,-1.84
2022-12-23T00:46:58.074Z,-1.87
2022-12-23T00:49:43.168Z,-1.83
2022-12-23T00:52:12.968Z,-1.81
2022-12-23T00:54:39.756Z,-1.80
2022-12-23T00:57:06.636Z,-1.84
2022-12-23T00:59:34.175Z,-1.87
2022-12-23T01:02:19.487Z,-1.86
2022-12-23T01:05:04.926Z,-1.90
2022-12-23T01:07:31.717Z,-1.85
2022-12-23T01:09:58.498Z,-1.77
2022-12-23T01:12:25.209Z,-1.75
2022-12-23T01:14:51.962Z,-1.79
2022-12-23T01:17:18.864Z,-1.72
2022-12-23T01:19:45.661Z,-1.68
2022-12-23T01:22:12.466Z,-1.71
2022-12-23T01:24:39.195Z,-1.71
2022-12-23T01:27:05.915Z,-1.62
2022-12-23T01:29:32.813Z,-1.59
2022-12-23T01:31:59.520Z,-1.59
2022-12-23T01:34:31.079Z,-1.53
2022-12-23T01:37:01.236Z,-1.61
2022-12-23T01:39:27.909Z,-1.79
2022-12-23T01:42:13.525Z,-1.88
2022-12-23T01:44:51.590Z,-1.78
2022-12-23T01:47:39.668Z,-1.78
2022-12-23T01:50:14.198Z,-1.80
2022-12-23T01:52:47.866Z,-1.75
2022-12-23T01:55:19.293Z,-1.75
2022-12-23T01:57:47.094Z,-1.74
2022-12-23T02:00:33.555Z,-1.65
2022-12-23T02:03:18.947Z,-1.59
2022-12-23T02:05:46.950Z,-1.56
2022-12-23T02:08:34.384Z,-1.49
2022-12-23T02:11:45.889Z,-1.62
2022-12-23T02:14:52.019Z,-1.60
2022-12-23T02:17:26.745Z,-1.51
2022-12-23T02:20:21.605Z,-1.45
2022-12-23T02:23:09.864Z,-1.46
2022-12-23T02:25:39.240Z,-1.39
2022-12-23T02:28:28.903Z,-1.41
2022-12-23T02:31:09.641Z,-1.41
2022-12-23T02:33:48.518Z,-1.49
2022-12-23T02:36:33.885Z,-1.40
2022-12-23T02:39:07.993Z,-1.44
2022-12-23T02:41:54.647Z,-1.42
2022-12-23T02:44:34.260Z,-1.39
2022-12-23T02:47:05.863Z,-1.44
2022-12-23T02:49:36.518Z,-1.47
2022-12-23T02:52:07.642Z,-1.43
2022-12-23T02:54:41.901Z,-1.44
2022-12-23T02:57:11.556Z,-1.48
2022-12-23T02:59:46.210Z,-1.54
2022-12-23T03:02:13.780Z,-1.51
2022-12-23T03:04:42.204Z,-1.50
2022-12-23T03:07:18.973Z,-1.52
2022-12-23T03:10:03.960Z,-1.42
2022-12-23T03:12:49.441Z,-1.42
2022-12-23T03:15:29.443Z,-1.59
2022-12-23T03:17:59.233Z,-1.43
2022-12-23T03:20:35.266Z,-1.48
2022-12-23T03:23:05.891Z,-1.63
2022-12-23T03:25:42.413Z,-1.43
2022-12-23T03:28:18.995Z,-1.42
2022-12-23T03:30:51.318Z,-1.40
2022-12-23T03:33:25.058Z,-1.36
2022-12-23T03:35:56.762Z,-1.39
2022-12-23T03:38:25.158Z,-1.33
2022-12-23T03:40:58.654Z,-1.31
2022-12-23T03:43:30.761Z,-1.28
2022-12-23T03:46:03.316Z,-1.32
2022-12-23T03:48:38.765Z,-1.39
2022-12-23T03:51:20.119Z,-1.40
2022-12-23T03:53:51.874Z,-1.57
2022-12-23T03:56:34.316Z,-1.50
2022-12-23T03:59:09.639Z,-1.51
2022-12-23T04:01:54.265Z,-1.46
2022-12-23T04:04:27.767Z,-1.50
2022-12-23T04:07:03.642Z,-1.51
2022-12-23T04:09:30.448Z,-1.43
2022-12-23T04:11:58.594Z,-1.45
2022-12-23T04:14:25.300Z,-1.40
2022-12-23T04:16:56.359Z,-1.41
2022-12-23T04:19:23.082Z,-1.41
2022-12-23T04:21:50.031Z,-1.43
2022-12-23T04:24:16.937Z,-1.47
2022-12-23T04:26:43.633Z,-1.51
2022-12-23T04:29:10.379Z,-1.58
2022-12-23T04:31:37.163Z,-1.59
2022-12-23T04:34:03.884Z,-1.52
2022-12-23T04:36:30.767Z,-1.43
2022-12-23T04:38:57.453Z,-1.38
2022-12-23T04:41:24.425Z,-1.34
2022-12-23T04:43:53.291Z,-1.44
2022-12-23T04:46:20.724Z,-1.45
2022-12-23T04:48:47.404Z,-1.43
2022-12-23T04:51:14.233Z,-1.45
2022-12-23T04:53:40.926Z,-1.50
2022-12-23T04:56:07.738Z,-1.48
2022-12-23T04:58:34.514Z,-1.50
2022-12-23T05:01:05.514Z,-1.56
2022-12-23T05:03:32.372Z,-1.51
2022-12-23T05:05:59.306Z,-1.50
2022-12-23T05:08:26.137Z,-1.46
2022-12-23T05:10:52.839Z,-1.39
2022-12-23T05:13:19.604Z,-1.31
2022-12-23T05:15:48.775Z,-1.25
2022-12-23T05:18:16.604Z,-1.26
2022-12-23T05:20:43.817Z,-1.26
2022-12-23T05:23:10.424Z,-1.23
2022-12-23T05:25:38.293Z,-1.22
2022-12-23T05:28:08.048Z,-1.14
2022-12-23T05:30:34.963Z,-1.10
2022-12-23T05:33:01.905Z,-1.07
2022-12-23T05:35:28.857Z,-1.19
2022-12-23T05:37:55.577Z,-1.24
2022-12-23T05:40:24.508Z,-1.24
2022-12-23T05:42:55.458Z,-1.15
2022-12-23T05:45:22.483Z,-1.15
2022-12-23T05:47:49.166Z,-1.09
2022-12-23T05:50:15.886Z,-1.10
2022-12-23T05:52:42.593Z,-1.12
2022-12-23T05:55:09.603Z,-1.02
2022-12-23T05:57:36.297Z,-0.96
2022-12-23T06:00:04.385Z,-1.00
2022-12-23T06:02:39.294Z,-0.97
2022-12-23T06:05:07.011Z,-1.01
2022-12-23T06:07:33.719Z,-0.92
2022-12-23T06:10:00.550Z,-0.90
2022-12-23T06:12:27.279Z,-0.87
2022-12-23T06:14:54.065Z,-0.90
2022-12-23T06:17:20.811Z,-0.92
2022-12-23T06:19:47.597Z,-0.91
2022-12-23T06:22:15.093Z,-0.85
2022-12-23T06:24:41.786Z,-0.85
2022-12-23T06:27:08.522Z,-0.77
2022-12-23T06:29:35.259Z,-0.78
2022-12-23T06:32:02.152Z,-0.85
2022-12-23T06:34:28.984Z,-0.96
2022-12-23T06:36:55.698Z,-0.87
2022-12-23T06:39:22.794Z,-0.91
2022-12-23T06:41:49.761Z,-0.94
2022-12-23T06:44:16.663Z,-0.87
2022-12-23T06:46:43.353Z,-0.88
2022-12-23T06:49:13.444Z,-0.86
2022-12-23T06:51:41.069Z,-0.84
2022-12-23T06:54:14.546Z,-0.82
2022-12-23T06:56:41.246Z,-0.93
2022-12-23T06:59:07.982Z,-0.85
2022-12-23T07:01:34.818Z,-0.84
2022-12-23T07:04:02.038Z,-0.77
2022-12-23T07:06:29.254Z,-0.74
2022-12-23T07:08:55.844Z,-0.78
2022-12-23T07:11:22.672Z,-0.76
2022-12-23T07:13:49.397Z,-0.74
2022-12-23T07:16:16.170Z,-0.70
2022-12-23T07:18:42.918Z,-0.61
2022-12-23T07:21:18.788Z,-0.50
2022-12-23T07:23:51.498Z,-0.41
2022-12-23T07:26:18.229Z,-0.37
2022-12-23T07:28:47.832Z,-0.37
2022-12-23T07:31:15.148Z,-0.36
2022-12-23T07:33:42.238Z,-0.26
2022-12-23T07:36:09.278Z,-0.20
2022-12-23T07:38:35.973Z,-0.12
2022-12-23T07:41:02.672Z,-0.05
2022-12-23T07:43:29.429Z,-0.09
2022-12-23T07:46:00.433Z,-0.24
2022-12-23T07:48:27.936Z,-0.26
2022-12-23T07:51:04.042Z,-0.28
2022-12-23T07:53:30.970Z,-0.34
2022-12-23T07:55:58.422Z,-0.55
2022-12-23T07:58:25.589Z,-0.28
2022-12-23T08:01:00.788Z,0.07
2022-12-23T08:03:28.140Z,0.50
2022-12-23T08:06:09.448Z,0.98
2022-12-23T08:09:01.115Z,1.21
2022-12-23T08:11:30.566Z,1.18
2022-12-23T08:13:57.435Z,1.39
2022-12-23T08:16:24.644Z,1.25
2022-12-23T08:18:51.766Z,1.31
2022-12-23T08:21:20.089Z,1.65
2022-12-23T08:23:47.601Z,1.61
2022-12-23T08:26:17.114Z,1.50
2022-12-23T08:28:45.921Z,1.49
2022-12-23T08:31:28.578Z,2.20
2022-12-23T08:34:00.472Z,2.28
2022-12-23T08:36:32.692Z,2.77
2022-12-23T08:39:10.329Z,2.88
2022-12-23T08:44:53.492Z,3.45
2022-12-23T08:47:21.953Z,3.48
2022-12-23T08:49:51.032Z,3.78
2022-12-23T08:52:18.466Z,3.97
2022-12-23T08:54:46.515Z,4.26
2022-12-23T08:57:14.209Z,4.63
2022-12-23T08:59:44.974Z,4.77
2022-12-23T09:02:12.035Z,5.19
2022-12-23T09:04:39.082Z,5.19
2022-12-23T09:07:06.096Z,5.22
2022-12-23T09:09:33.001Z,5.03
2022-12-23T09:11:59.756Z,5.04
2022-12-23T09:14:26.452Z,5.08
2022-12-23T09:16:53.175Z,5.21
2022-12-23T09:19:20.445Z,5.35
2022-12-23T09:21:47.907Z,4.82
2022-12-23T09:24:14.607Z,4.87
2022-12-23T09:26:41.536Z,4.32
2022-12-23T09:29:08.304Z,4.53
2022-12-23T09:31:37.692Z,4.64
2022-12-23T09:34:06.770Z,4.68
2022-12-23T09:36:34.864Z,4.75
2022-12-23T09:39:04.454Z,5.00
2022-12-23T09:41:35.097Z,5.30
2022-12-23T09:44:38.981Z,5.21
2022-12-23T09:47:13.031Z,5.49
2022-12-23T09:49:47.449Z,5.74
2022-12-23T09:52:20.795Z,5.90
2022-12-23T09:54:52.493Z,6.30
2022-12-23T09:57:42.098Z,6.65
2022-12-23T10:00:14.083Z,7.08
2022-12-23T10:02:56.263Z,7.37
2022-12-23T10:05:41.407Z,7.74
2022-12-23T10:08:12.286Z,8.23
2022-12-23T10:11:05.744Z,8.03
2022-12-23T10:13:37.762Z,7.69
2022-12-23T10:16:09.678Z,7.30
2022-12-23T10:18:51.493Z,7.03
2022-12-23T10:21:26.657Z,7.46
2022-12-23T10:23:55.287Z,7.85
2022-12-23T10:26:32.352Z,8.32
2022-12-23T10:29:08.301Z,8.53
2022-12-23T10:31:50.433Z,8.90
2022-12-23T10:34:26.964Z,8.76
2022-12-23T10:36:59.195Z,8.60
2022-12-23T10:39:51.447Z,8.22
2022-12-23T10:42:56.313Z,8.53
2022-12-23T10:45:59.410Z,8.52
2022-12-23T10:48:55.130Z,8.51
2022-12-23T10:51:55.837Z,8.35
2022-12-23T10:54:36.930Z,8.27
2022-12-23T10:57:05.621Z,7.98
2022-12-23T10:59:34.037Z,8.18
2022-12-23T11:02:19.485Z,8.60
2022-12-23T11:04:48.980Z,9.24
2022-12-23T11:10:17.737Z,10.14
2022-12-23T11:12:53.099Z,10.67
2022-12-23T11:15:35.195Z,10.96
2022-12-23T11:18:16.787Z,11.15
2022-12-23T11:20:46.516Z,10.72
2022-12-23T11:23:27.605Z,10.73
2022-12-23T11:26:10.293Z,10.76
2022-12-23T11:28:51.165Z,10.12
2022-12-23T11:31:27.247Z,9.84
2022-12-23T11:34:01.733Z,10.07
2022-12-23T11:36:30.682Z,9.92
2022-12-23T11:39:10.578Z,9.92
2022-12-23T11:42:06.224Z,9.87
2022-12-23T11:44:41.633Z,9.86
2022-12-23T11:47:21.755Z,10.34
2022-12-23T11:50:00.242Z,10.99
2022-12-23T11:52:31.207Z,11.54
2022-12-23T11:55:00.645Z,11.95
2022-12-23T11:57:33.204Z,12.39
2022-12-23T12:00:06.256Z,12.83
2022-12-23T12:02:55.052Z,13.26
2022-12-23T12:05:33.662Z,13.55
2022-12-23T12:08:03.721Z,13.23
2022-12-23T12:10:34.058Z,13.18
2022-12-23T12:13:07.608Z,13.48
2022-12-23T12:15:50.407Z,13.29
2022-12-23T12:18:19.674Z,12.54
2022-12-23T12:20:51.675Z,12.75
2022-12-23T12:23:27.720Z,13.08
2022-12-23T12:26:04.812Z,13.47
2022-12-23T12:28:41.533Z,13.81
2022-12-23T12:31:24.666Z,14.11
2022-12-23T12:34:05.159Z,14.26
2022-12-23T12:36:48.509Z,14.48
2022-12-23T12:39:43.317Z,14.51
2022-12-23T12:42:41.045Z,14.49
2022-12-23T12:45:20.649Z,14.53
2022-12-23T12:47:57.048Z,14.73
2022-12-23T12:50:30.364Z,14.78
2022-12-23T12:53:04.051Z,14.81
2022-12-23T12:55:39.742Z,14.64
2022-12-23T12:58:18.625Z,14.13
2022-12-23T13:01:15.128Z,13.18
2022-12-23T13:03:50.588Z,12.39
2022-12-23T13:06:22.890Z,11.87
2022-12-23T13:09:01.430Z,11.53
2022-12-23T13:12:00.242Z,11.22
2022-12-23T13:14:33.878Z,10.95
2022-12-23T13:17:22.878Z,10.74
2022-12-23T13:20:17.029Z,10.63
2022-12-23T13:22:46.089Z,10.70
2022-12-23T13:25:19.908Z,11.20
2022-12-23T13:27:57.202Z,11.61
2022-12-23T13:30:28.744Z,12.01
2022-12-23T13:33:49.552Z,12.26
2022-12-23T13:36:32.072Z,12.18
2022-12-23T13:39:05.604Z,12.08
2022-12-23T13:41:51.687Z,11.98
2022-12-23T13:44:20.734Z,11.86
2022-12-23T13:47:14.093Z,11.67
2022-12-23T13:49:40.742Z,11.26
2022-12-23T13:52:11.957Z,11.15
2022-12-23T13:55:14.652Z,11.33
2022-12-23T13:58:06.308Z,11.47
2022-12-23T14:00:34.498Z,11.70
2022-12-23T14:03:01.192Z,11.84
2022-12-23T14:05:34.568Z,11.67
2022-12-23T14:08:22.794Z,11.70
2022-12-23T14:11:00.633Z,11.72
2022-12-23T14:13:40.066Z,11.52
2022-12-23T14:16:22.645Z,11.11
2022-12-23T14:19:30.439Z,10.46
2022-12-23T14:22:09.205Z,10.16
2022-12-23T14:25:11.562Z,9.58
2022-12-23T14:28:07.570Z,9.23
2022-12-23T14:30:37.406Z,9.10
2022-12-23T14:33:23.729Z,9.00
2022-12-23T14:35:51.867Z,8.77
2022-12-23T14:38:24.347Z,8.63
2022-12-23T14:40:54.030Z,8.57
2022-12-23T14:43:26.662Z,8.47
2022-12-23T14:46:01.736Z,8.40
2022-12-23T14:48:34.658Z,8.32
2022-12-23T14:51:08.360Z,8.26
2022-12-23T14:53:37.617Z,8.18
2022-12-23T14:56:22.837Z,8.00
2022-12-23T14:58:52.698Z,7.68
2022-12-23T15:01:54.008Z,7.53
2022-12-23T15:04:37.281Z,7.43
2022-12-23T15:07:07.805Z,7.35
2022-12-23T15:10:00.779Z,7.25
2022-12-23T15:12:40.499Z,7.00
2022-12-23T15:15:29.058Z,6.80
2022-12-23T15:18:03.333Z,6.81
2022-12-23T15:20:30.159Z,6.82
2022-12-23T15:23:00.842Z,6.72
2022-12-23T15:25:30.011Z,6.49
2022-12-23T15:28:01.967Z,6.41
2022-12-23T15:30:34.580Z,6.19
2022-12-23T15:33:28.249Z,5.96
2022-12-23T15:35:56.045Z,5.70
2022-12-23T15:38:29.336Z,5.63
2022-12-23T15:41:13.721Z,5.61
2022-12-23T15:43:42.646Z,5.60
2022-12-23T15:46:17.479Z,5.43
2022-12-23T15:48:46.333Z,5.37
2022-12-23T15:54:31.717Z,4.99
2022-12-23T15:57:00.337Z,4.55
2022-12-23T15:59:38.639Z,4.43
2022-12-23T16:02:32.494Z,4.48
2022-12-23T16:05:00.681Z,4.64
2022-12-23T16:07:39.240Z,4.71
2022-12-23T16:10:16.109Z,4.45
2022-12-23T16:12:43.828Z,4.47
2022-12-23T16:15:28.658Z,4.62
2022-12-23T16:18:21.911Z,4.69
2022-12-23T16:20:59.665Z,4.66
2022-12-23T16:23:30.218Z,4.55
2022-12-23T16:26:00.225Z,4.51
2022-12-23T16:28:31.128Z,4.54
2022-12-23T16:30:58.441Z,4.49
2022-12-23T16:33:34.456Z,4.46
2022-12-23T16:36:16.834Z,4.30
2022-12-23T16:38:44.009Z,4.10
2022-12-23T16:41:10.681Z,4.09
2022-12-23T16:43:37.642Z,4.00
2022-12-23T16:46:05.142Z,3.77
2022-12-23T16:48:41.366Z,3.74
2022-12-23T16:51:12.765Z,3.87
2022-12-23T16:53:40.143Z,3.86
2022-12-23T16:56:15.008Z,3.72
2022-12-23T16:58:42.577Z,3.93
2022-12-23T17:01:21.908Z,4.18
2022-12-23T17:03:49.038Z,4.31
2022-12-23T17:06:16.857Z,4.14
2022-12-23T17:08:43.929Z,4.15
2022-12-23T17:11:21.205Z,4.14
2022-12-23T17:13:47.919Z,4.12
2022-12-23T17:16:15.910Z,4.11
2022-12-23T17:18:42.598Z,4.08
2022-12-23T17:21:30.562Z,3.93
2022-12-23T17:24:25.726Z,3.75
2022-12-23T17:26:53.859Z,3.69
2022-12-23T17:29:20.789Z,3.62
2022-12-23T17:31:48.493Z,3.63
2022-12-23T17:34:18.006Z,3.63
2022-12-23T17:36:49.950Z,3.72
2022-12-23T17:39:18.069Z,3.70
2022-12-23T17:41:44.860Z,3.65
2022-12-23T17:44:14.400Z,3.73
2022-12-23T17:46:41.377Z,3.94
2022-12-23T17:49:08.595Z,4.03
2022-12-23T17:51:35.615Z,4.20
2022-12-23T17:54:04.509Z,4.21
2022-12-23T17:56:31.332Z,4.18
2022-12-23T17:58:58.845Z,4.03
2022-12-23T18:01:28.442Z,3.95
2022-12-23T18:03:57.282Z,4.07
2022-12-23T18:06:25.767Z,4.14
2022-12-23T18:08:52.573Z,4.13
2022-12-23T18:11:23.474Z,4.06
2022-12-23T18:13:52.818Z,4.00
2022-12-23T18:16:19.589Z,3.92
2022-12-23T18:18:47.195Z,3.88
2022-12-23T18:21:20.947Z,3.89
2022-12-23T18:23:47.811Z,3.92
2022-12-23T18:26:17.515Z,3.87
2022-12-23T18:28:44.920Z,3.82
2022-12-23T18:31:21.084Z,3.76
2022-12-23T18:33:48.546Z,3.72
2022-12-23T18:36:22.750Z,3.81
2022-12-23T18:38:50.001Z,3.93
2022-12-23T18:41:16.591Z,3.94
2022-12-23T18:43:43.325Z,3.81
2022-12-23T18:46:10.099Z,3.77
2022-12-23T18:48:36.880Z,3.70
2022-12-23T18:51:03.722Z,3.66
2022-12-23T18:53:30.456Z,3.72
2022-12-23T18:55:57.197Z,3.66
2022-12-23T18:58:24.564Z,3.64
2022-12-23T19:00:53.142Z,3.69
2022-12-23T19:03:29.028Z,3.76
2022-12-23T19:05:56.755Z,3.90
2022-12-23T19:08:27.415Z,3.97
2022-12-23T19:10:55.195Z,3.98
2022-12-23T19:13:21.828Z,3.98
2022-12-23T19:15:48.910Z,3.98
2022-12-23T19:18:17.072Z,3.99
2022-12-23T19:20:45.076Z,4.06
2022-12-23T19:23:12.991Z,4.05
2022-12-23T19:25:52.646Z,4.00
2022-12-23T19:28:21.979Z,3.92
2022-12-23T19:30:48.906Z,3.89
2022-12-23T19:33:15.842Z,3.90
2022-12-23T19:35:43.822Z,3.88
2022-12-23T19:38:12.372Z,3.79
2022-12-23T19:40:40.023Z,3.80
2022-12-23T19:43:07.189Z,3.75
2022-12-23T19:45:33.832Z,3.73
2022-12-23T19:48:00.688Z,3.67
2022-12-23T19:50:28.227Z,3.57
2022-12-23T19:52:56.481Z,3.55
2022-12-23T19:55:24.142Z,3.53
2022-12-23T19:57:51.815Z,3.51
2022-12-23T20:00:18.649Z,3.48
2022-12-23T20:02:45.401Z,3.47
2022-12-23T20:05:12.140Z,3.50
2022-12-23T20:07:38.949Z,3.53
2022-12-23T20:10:06.578Z,3.53
2022-12-23T20:12:33.459Z,3.52
2022-12-23T20:15:00.303Z,3.52
2022-12-23T20:17:27.009Z,3.54
2022-12-23T20:19:53.688Z,3.57
2022-12-23T20:22:20.392Z,3.59
2022-12-23T20:24:47.304Z,3.58
2022-12-23T20:27:16.157Z,3.48
2022-12-23T20:29:43.342Z,3.41
2022-12-23T20:32:10.610Z,3.43
2022-12-23T20:34:39.998Z,3.48
2022-12-23T20:37:07.829Z,3.52
2022-12-23T20:39:34.991Z,3.50
2022-12-23T20:42:01.747Z,3.43
2022-12-23T20:44:37.279Z,3.43
2022-12-23T20:47:06.075Z,3.52
2022-12-23T20:49:33.616Z,3.52
2022-12-23T20:52:00.454Z,3.50
2022-12-23T20:54:32.669Z,3.46
2022-12-23T20:57:00.405Z,3.39
2022-12-23T20:59:27.139Z,3.20
2022-12-23T21:01:53.910Z,3.05
2022-12-23T21:04:20.920Z,2.91
2022-12-23T21:06:47.739Z,2.79
2022-12-23T21:09:16.012Z,2.77
2022-12-23T21:11:46.123Z,2.85
2022-12-23T21:14:14.493Z,2.95
2022-12-23T21:16:42.324Z,3.00
2022-12-23T21:19:14.219Z,3.02
2022-12-23T21:21:40.994Z,2.94
2022-12-23T21:24:07.884Z,3.16
2022-12-23T21:26:35.535Z,3.32
2022-12-23T21:29:04.983Z,3.36
2022-12-23T21:31:33.767Z,3.36
2022-12-23T21:34:00.863Z,3.37
2022-12-23T21:36:33.411Z,3.37
2022-12-23T21:39:00.873Z,3.27
2022-12-23T21:41:30.192Z,3.23
2022-12-23T21:43:58.563Z,3.18
2022-12-23T21:46:26.234Z,3.17
2022-12-23T21:48:53.441Z,3.10
2022-12-23T21:51:21.831Z,3.08
2022-12-23T21:53:50.545Z,3.08
2022-12-23T21:56:24.563Z,3.04
2022-12-23T21:59:03.270Z,3.06
2022-12-23T22:01:31.393Z,3.02
2022-12-23T22:03:58.747Z,3.00
2022-12-23T22:06:28.892Z,3.03
2022-12-23T22:08:56.853Z,3.05
2022-12-23T22:11:26.958Z,3.00
2022-12-23T22:13:56.520Z,3.04
2022-12-23T22:16:25.702Z,2.94
2022-12-23T22:18:55.594Z,2.79
2022-12-23T22:21:24.717Z,2.75
2022-12-23T22:23:53.606Z,2.79
2022-12-23T22:26:26.407Z,2.70
2022-12-23T22:28:55.410Z,2.59
2022-12-23T22:31:34.191Z,2.43
2022-12-23T22:34:01.497Z,2.43
2022-12-23T22:36:28.485Z,2.58
2022-12-23T22:38:57.824Z,2.71
2022-12-23T22:41:25.821Z,2.66
2022-12-23T22:43:52.576Z,2.79
2022-12-23T22:46:19.477Z,2.83
2022-12-23T22:48:46.303Z,2.84
2022-12-23T22:51:18.764Z,2.77
2022-12-23T22:53:45.921Z,2.75
2022-12-23T22:56:14.866Z,2.65
2022-12-23T22:58:42.201Z,2.60
2022-12-23T23:01:25.480Z,2.59
2022-12-23T23:03:57.386Z,2.63
2022-12-23T23:06:32.828Z,2.68
2022-12-23T23:08:59.926Z,2.72
2022-12-23T23:11:28.054Z,2.73
2022-12-23T23:13:55.357Z,2.73
2022-12-23T23:16:22.758Z,2.66
2022-12-23T23:18:50.791Z,2.53
2022-12-23T23:21:17.805Z,2.43
2022-12-23T23:23:44.769Z,2.43
2022-12-23T23:26:11.664Z,2.34
2022-12-23T23:28:39.547Z,2.43
2022-12-23T23:31:40.450Z,2.52
2022-12-23T23:33:54.060Z,2.59
2022-12-23T23:36:20.819Z,2.52
2022-12-23T23:38:47.561Z,2.42
2022-12-23T23:41:20.509Z,2.41
2022-12-23T23:43:49.490Z,2.41
2022-12-23T23:46:16.241Z,2.41
2022-12-23T23:48:42.995Z,2.39
2022-12-23T23:51:09.845Z,2.40
2022-12-23T23:53:36.646Z,2.44
2022-12-23T23:56:07.880Z,2.53
2022-12-23T23:58:36.292Z,2.54
